Time;durP1;ratioP1;P1;durP2;ratioP2;P2;SDS_P1;SDS_P2;PMS_P1;PMS_P2;Temp;Humidity;BMP_temperature;BMP_pressure;BME280_temperature;BME280_humidity;BME280_pressure;Samples;Min_cycle;Max_cycle;Signal;HPM_P1;HPM_P2
2021/03/01 00:00:20;;;;;;;26.43;14.93;;;4.70;99.90;;;;;;5040142;28;20190;-72
2021/03/01 00:02:46;;;;;;;24.87;14.10;;;4.80;99.90;;;;;;5046106;28;20194;-72
2021/03/01 00:05:13;;;;;;;25.50;14.83;;;4.70;99.90;;;;;;5031923;28;20174;-72
2021/03/01 00:07:39;;;;;;;22.67;14.17;;;4.70;99.90;;;;;;5047148;28;20312;-72
2021/03/01 00:10:05;;;;;;;25.97;14.43;;;4.60;99.90;;;;;;5035317;28;20216;-72
2021/03/01 00:12:31;;;;;;;27.00;14.80;;;4.60;99.90;;;;;;5015348;28;20702;-71
2021/03/01 00:14:56;;;;;;;29.33;15.63;;;4.60;99.90;;;;;;5031741;28;20201;-72
2021/03/01 00:17:22;;;;;;;25.80;15.27;;;4.60;99.90;;;;;;5031950;28;20182;-72
2021/03/01 00:19:47;;;;;;;28.40;16.53;;;4.60;99.90;;;;;;5031642;28;20209;-72
2021/03/01 00:22:13;;;;;;;27.93;14.97;;;4.60;99.90;;;;;;5031525;28;20238;-72
2021/03/01 00:24:38;;;;;;;29.93;15.73;;;4.70;99.90;;;;;;5031282;28;20611;-71
2021/03/01 00:27:04;;;;;;;29.10;16.07;;;4.50;99.90;;;;;;5032826;28;20551;-71
2021/03/01 00:29:30;;;;;;;34.30;16.07;;;4.50;99.90;;;;;;5031500;28;20607;-72
2021/03/01 00:31:55;;;;;;;30.00;16.23;;;4.50;99.90;;;;;;5030761;28;20831;-71
2021/03/01 00:34:21;;;;;;;30.20;16.47;;;4.50;99.90;;;;;;5032674;28;20189;-72
2021/03/01 00:36:46;;;;;;;30.20;16.67;;;4.50;99.90;;;;;;5031723;28;20257;-72
2021/03/01 00:39:12;;;;;;;32.23;16.37;;;4.50;99.90;;;;;;5031991;28;20229;-71
2021/03/01 00:41:37;;;;;;;34.63;17.50;;;4.50;99.90;;;;;;5031332;28;20246;-71
2021/03/01 00:44:03;;;;;;;28.47;16.30;;;4.50;99.90;;;;;;5030994;28;20174;-71
2021/03/01 00:46:28;;;;;;;27.03;17.10;;;4.50;99.90;;;;;;5031209;28;20168;-72
2021/03/01 00:48:54;;;;;;;30.83;16.10;;;4.60;99.90;;;;;;5014903;28;20174;-72
2021/03/01 00:51:19;;;;;;;27.70;16.40;;;4.70;99.90;;;;;;5014493;28;20213;-72
2021/03/01 00:53:45;;;;;;;30.43;17.33;;;4.60;99.90;;;;;;5031213;28;20169;-72
2021/03/01 00:56:10;;;;;;;30.30;16.73;;;4.70;99.90;;;;;;5031350;28;20201;-72
2021/03/01 00:58:36;;;;;;;29.53;16.63;;;4.70;99.90;;;;;;5031103;28;20168;-72
2021/03/01 01:01:02;;;;;;;26.67;15.57;;;4.70;99.90;;;;;;5031093;28;20228;-72
2021/03/01 01:03:27;;;;;;;26.50;15.17;;;4.70;99.90;;;;;;5042293;28;20705;-71
2021/03/01 01:05:53;;;;;;;28.63;16.00;;;4.60;99.90;;;;;;5043768;28;20176;-71
2021/03/01 01:08:18;;;;;;;26.50;15.63;;;4.50;99.90;;;;;;5031470;28;20254;-71
2021/03/01 01:10:44;;;;;;;28.73;15.63;;;4.60;99.90;;;;;;5030985;28;20194;-71
2021/03/01 01:13:09;;;;;;;29.40;16.70;;;4.60;99.90;;;;;;5032375;28;20705;-72
2021/03/01 01:15:35;;;;;;;29.57;16.83;;;4.60;99.90;;;;;;5031070;28;20179;-72
2021/03/01 01:18:01;;;;;;;30.97;16.83;;;4.60;99.90;;;;;;5031196;28;20175;-72
2021/03/01 01:20:26;;;;;;;29.90;17.37;;;4.60;99.90;;;;;;5031173;28;20183;-71
2021/03/01 01:22:52;;;;;;;30.30;17.17;;;4.60;99.90;;;;;;5030763;28;20209;-71
2021/03/01 01:25:17;;;;;;;32.57;16.93;;;4.60;99.90;;;;;;5030907;28;20584;-72
2021/03/01 01:27:43;;;;;;;31.83;16.27;;;4.50;99.90;;;;;;5030649;28;20198;-72
2021/03/01 01:30:10;;;;;;;33.63;17.90;;;4.60;99.90;;;;;;5014158;28;20176;-71
2021/03/01 01:32:38;;;;;;;29.93;16.97;;;4.60;99.90;;;;;;5030962;28;20206;-72
2021/03/01 01:35:08;;;;;;;31.40;17.03;;;4.60;99.90;;;;;;5030377;28;20182;-71
2021/03/01 01:37:34;;;;;;;35.77;18.33;;;4.70;99.90;;;;;;5031145;28;20248;-72
2021/03/01 01:40:00;;;;;;;32.07;17.80;;;4.60;99.90;;;;;;5015007;28;20725;-72
2021/03/01 01:42:26;;;;;;;33.97;18.17;;;4.70;99.90;;;;;;5030262;28;20262;-72
2021/03/01 01:44:51;;;;;;;33.23;17.73;;;4.60;99.90;;;;;;5033690;28;20395;-72
2021/03/01 01:47:17;;;;;;;31.43;16.90;;;4.60;99.90;;;;;;5034388;28;20555;-72
2021/03/01 01:49:42;;;;;;;31.73;17.00;;;4.70;99.90;;;;;;5036001;28;20194;-72
2021/03/01 01:52:08;;;;;;;35.20;17.67;;;4.60;99.90;;;;;;5034444;28;20213;-71
2021/03/01 01:54:33;;;;;;;32.90;17.80;;;4.60;99.90;;;;;;5034422;28;20179;-72
2021/03/01 01:56:59;;;;;;;36.73;17.73;;;4.70;99.90;;;;;;5034533;28;20261;-72
2021/03/01 01:59:25;;;;;;;33.30;17.30;;;4.70;99.90;;;;;;5017881;28;20255;-71
2021/03/01 02:01:50;;;;;;;30.27;16.73;;;4.70;99.90;;;;;;5019638;28;20263;-71
2021/03/01 02:04:24;;;;;;;27.70;15.97;;;4.70;99.90;;;;;;5034234;28;20186;-72
2021/03/01 02:07:13;;;;;;;27.43;16.17;;;4.60;99.90;;;;;;5034579;28;20171;-72
2021/03/01 02:09:45;;;;;;;29.33;16.43;;;4.60;99.90;;;;;;5037031;28;20178;-72
2021/03/01 02:12:12;;;;;;;30.10;15.67;;;4.60;99.90;;;;;;5035181;28;20200;-72
2021/03/01 02:15:11;;;;;;;28.67;16.27;;;4.50;99.90;;;;;;5035674;28;20182;-72
2021/03/01 02:17:37;;;;;;;26.90;14.20;;;4.50;99.90;;;;;;5055260;28;20178;-72
2021/03/01 02:20:05;;;;;;;25.70;15.30;;;4.60;99.90;;;;;;5054067;28;20189;-72
2021/03/01 02:22:31;;;;;;;21.73;12.77;;;4.60;99.90;;;;;;5053873;28;20209;-71
2021/03/01 02:25:19;;;;;;;27.90;13.90;;;4.50;99.90;;;;;;5053948;28;20738;-72
2021/03/01 02:27:49;;;;;;;26.63;14.57;;;4.40;99.90;;;;;;5054977;28;20180;-73
2021/03/01 02:30:21;;;;;;;27.17;13.70;;;4.40;99.90;;;;;;5053671;28;20182;-73
2021/03/01 02:32:46;;;;;;;25.70;14.40;;;4.40;99.90;;;;;;5054274;28;20189;-72
2021/03/01 02:35:13;;;;;;;27.23;14.60;;;4.40;99.90;;;;;;5037583;28;20448;-73
2021/03/01 02:37:38;;;;;;;26.97;14.00;;;4.40;99.90;;;;;;5038169;28;20191;-72
2021/03/01 02:40:05;;;;;;;29.73;15.47;;;4.40;99.90;;;;;;5054980;28;20178;-72
2021/03/01 02:42:30;;;;;;;30.43;15.63;;;4.30;99.90;;;;;;5021309;28;20239;-72
2021/03/01 02:44:56;;;;;;;27.83;14.87;;;4.30;99.90;;;;;;5038370;28;20173;-71
2021/03/01 02:47:23;;;;;;;28.27;14.13;;;4.40;99.90;;;;;;5038123;28;20174;-72
2021/03/01 02:49:48;;;;;;;30.20;15.37;;;4.40;99.90;;;;;;5021935;28;20251;-72
2021/03/01 02:52:15;;;;;;;28.77;14.50;;;4.30;99.90;;;;;;5021860;28;20685;-72
2021/03/01 02:54:40;;;;;;;28.67;15.07;;;4.30;99.90;;;;;;5037968;28;20173;-72
2021/03/01 02:57:07;;;;;;;27.37;14.80;;;4.30;99.90;;;;;;5021383;28;20183;-71
2021/03/01 02:59:33;;;;;;;24.97;13.87;;;4.40;99.90;;;;;;5021690;28;20184;-72
2021/03/01 03:01:58;;;;;;;23.00;13.20;;;4.40;99.90;;;;;;5054295;28;20234;-72
2021/03/01 03:04:24;;;;;;;26.60;13.53;;;4.40;99.90;;;;;;5038046;28;20174;-72
2021/03/01 03:06:49;;;;;;;24.67;13.47;;;4.30;99.90;;;;;;5021466;28;20642;-72
2021/03/01 03:09:15;;;;;;;27.33;13.73;;;4.30;99.90;;;;;;5038371;28;20170;-72
2021/03/01 03:11:42;;;;;;;29.30;14.60;;;4.40;99.90;;;;;;5055001;28;20201;-70
2021/03/01 03:14:08;;;;;;;25.17;13.33;;;4.40;99.90;;;;;;5037961;28;20190;-72
2021/03/01 03:16:34;;;;;;;21.00;11.77;;;4.40;99.90;;;;;;5054738;28;20524;-72
2021/03/01 03:18:59;;;;;;;23.00;11.57;;;4.50;99.90;;;;;;5037702;28;20296;-72
2021/03/01 03:21:25;;;;;;;21.37;11.50;;;4.40;99.90;;;;;;5021158;28;20293;-72
2021/03/01 03:23:50;;;;;;;19.93;10.40;;;4.40;99.90;;;;;;5020806;28;20187;-72
2021/03/01 03:26:16;;;;;;;20.10;11.10;;;4.30;99.90;;;;;;5037657;28;20239;-72
2021/03/01 03:28:45;;;;;;;18.47;10.37;;;4.30;99.90;;;;;;5054183;28;20266;-70
2021/03/01 03:31:11;;;;;;;21.60;10.23;;;4.30;99.90;;;;;;5020847;28;20201;-70
2021/03/01 03:33:40;;;;;;;21.23;10.17;;;4.20;99.90;;;;;;5020004;28;20609;-72
2021/03/01 03:36:06;;;;;;;21.50;10.60;;;4.20;99.90;;;;;;5037835;28;20174;-70
2021/03/01 03:38:34;;;;;;;21.13;10.20;;;4.10;99.90;;;;;;5036590;28;20177;-72
2021/03/01 03:41:03;;;;;;;23.40;11.13;;;4.00;99.90;;;;;;5021068;28;20247;-72
2021/03/01 03:43:28;;;;;;;18.57;10.43;;;4.00;99.90;;;;;;5036886;28;20205;-72
2021/03/01 03:45:57;;;;;;;17.60;9.60;;;4.10;99.90;;;;;;5037603;28;20215;-72
2021/03/01 03:48:24;;;;;;;18.90;9.77;;;4.10;99.90;;;;;;5021274;28;20177;-72
2021/03/01 03:50:57;;;;;;;20.20;9.63;;;4.10;99.90;;;;;;5054797;28;20188;-71
2021/03/01 03:53:25;;;;;;;22.23;10.17;;;4.10;99.90;;;;;;5036764;28;20193;-72
2021/03/01 03:55:50;;;;;;;20.53;10.50;;;4.00;99.90;;;;;;5037475;28;20186;-72
2021/03/01 03:58:21;;;;;;;19.63;10.00;;;4.00;99.90;;;;;;5036518;28;20182;-72
2021/03/01 04:00:49;;;;;;;20.50;10.00;;;3.90;99.90;;;;;;5037031;28;20202;-72
2021/03/01 04:03:14;;;;;;;23.43;10.17;;;3.90;99.90;;;;;;5037097;28;20209;-72
2021/03/01 04:05:41;;;;;;;20.67;10.23;;;3.90;99.90;;;;;;5019541;28;20188;-71
2021/03/01 04:08:07;;;;;;;21.73;10.20;;;3.90;99.90;;;;;;5037177;28;20172;-72
2021/03/01 04:10:32;;;;;;;18.17;9.77;;;3.90;99.90;;;;;;5020104;28;20254;-71
2021/03/01 04:12:58;;;;;;;20.93;9.97;;;3.90;99.90;;;;;;5020494;28;20443;-72
2021/03/01 04:15:24;;;;;;;20.03;9.70;;;3.90;99.90;;;;;;5019859;28;20716;-72
2021/03/01 04:17:49;;;;;;;20.63;9.43;;;4.00;99.90;;;;;;5036485;28;20182;-72
2021/03/01 04:20:18;;;;;;;21.10;10.17;;;3.90;99.90;;;;;;5036695;28;20185;-72
2021/03/01 04:22:43;;;;;;;21.50;10.20;;;3.90;99.90;;;;;;5053357;28;20194;-72
2021/03/01 04:25:09;;;;;;;19.17;9.30;;;4.00;99.90;;;;;;5036108;28;20188;-72
2021/03/01 04:27:37;;;;;;;20.90;9.53;;;3.90;99.90;;;;;;5020028;28;20188;-72
2021/03/01 04:30:05;;;;;;;16.67;8.50;;;3.90;99.90;;;;;;5037184;28;20180;-72
2021/03/01 04:32:30;;;;;;;16.63;9.47;;;3.90;99.90;;;;;;5036353;28;20198;-71
2021/03/01 04:34:56;;;;;;;17.70;9.77;;;3.80;99.90;;;;;;5020365;28;20174;-73
2021/03/01 04:37:21;;;;;;;20.07;10.00;;;3.80;99.90;;;;;;5036822;28;20257;-71
2021/03/01 04:39:47;;;;;;;18.10;9.70;;;3.80;99.90;;;;;;5036392;28;20277;-72
2021/03/01 04:42:12;;;;;;;16.03;9.40;;;3.90;99.90;;;;;;5036453;28;20256;-72
2021/03/01 04:44:38;;;;;;;20.67;9.93;;;3.90;99.90;;;;;;5036400;28;20204;-72
2021/03/01 04:47:05;;;;;;;24.33;10.43;;;3.90;99.90;;;;;;5036715;28;20553;-72
2021/03/01 04:49:30;;;;;;;19.00;9.80;;;3.90;99.90;;;;;;5036423;28;20178;-72
2021/03/01 04:51:56;;;;;;;23.83;10.57;;;3.90;99.90;;;;;;5019738;28;20212;-72
2021/03/01 04:54:21;;;;;;;21.17;11.00;;;3.90;99.90;;;;;;5020074;28;20607;-72
2021/03/01 04:56:47;;;;;;;22.57;10.33;;;4.10;99.90;;;;;;5019837;28;20208;-72
2021/03/01 04:59:17;;;;;;;19.87;10.33;;;4.00;99.90;;;;;;5036992;28;20303;-72
2021/03/01 05:01:43;;;;;;;21.03;10.33;;;4.00;99.90;;;;;;5020537;28;20198;-72
2021/03/01 05:04:09;;;;;;;20.37;10.40;;;4.00;99.90;;;;;;5036414;28;20177;-72
2021/03/01 05:06:34;;;;;;;21.67;10.67;;;4.00;99.90;;;;;;5036826;28;20177;-72
2021/03/01 05:09:01;;;;;;;22.13;10.37;;;4.00;99.90;;;;;;5036755;28;20185;-72
2021/03/01 05:11:34;;;;;;;23.73;11.50;;;4.00;99.90;;;;;;5037885;28;20238;-72
2021/03/01 05:14:00;;;;;;;19.70;10.80;;;4.00;99.90;;;;;;5036188;28;20170;-72
2021/03/01 05:16:27;;;;;;;26.17;11.57;;;4.00;99.90;;;;;;5036590;28;20716;-72
2021/03/01 05:18:52;;;;;;;20.53;10.10;;;4.10;99.90;;;;;;5036341;28;20177;-72
2021/03/01 05:21:18;;;;;;;18.73;10.13;;;4.00;99.90;;;;;;5019678;28;20209;-70
2021/03/01 05:23:44;;;;;;;17.80;10.07;;;4.10;99.90;;;;;;5035350;28;20243;-70
2021/03/01 05:26:10;;;;;;;22.77;10.50;;;4.10;99.90;;;;;;5036036;28;20174;-72
2021/03/01 05:28:36;;;;;;;22.27;10.93;;;4.10;99.90;;;;;;5036228;28;20224;-71
2021/03/01 05:31:03;;;;;;;23.70;10.53;;;4.10;99.90;;;;;;5053808;28;20240;-72
2021/03/01 05:33:29;;;;;;;22.97;10.83;;;4.00;99.90;;;;;;5052510;28;20189;-72
2021/03/01 05:35:54;;;;;;;20.87;10.50;;;3.90;99.90;;;;;;5053250;28;20181;-72
2021/03/01 05:38:20;;;;;;;22.73;10.43;;;4.00;99.90;;;;;;5019616;28;20189;-72
2021/03/01 05:40:47;;;;;;;18.73;10.13;;;3.90;99.90;;;;;;5018503;28;20205;-72
2021/03/01 05:43:13;;;;;;;18.27;9.67;;;3.80;99.90;;;;;;5033271;28;20231;-71
2021/03/01 05:45:38;;;;;;;21.50;11.50;;;3.90;99.90;;;;;;5048660;28;20188;-71
2021/03/01 05:48:07;;;;;;;20.70;11.27;;;3.70;99.90;;;;;;5047057;28;20182;-71
2021/03/01 05:50:32;;;;;;;23.87;11.63;;;3.80;99.90;;;;;;5061156;28;20235;-71
2021/03/01 05:52:58;;;;;;;23.00;11.90;;;3.90;99.90;;;;;;5066876;28;20655;-71
2021/03/01 05:55:23;;;;;;;24.57;12.47;;;3.90;99.90;;;;;;5063615;28;20716;-71
2021/03/01 05:57:49;;;;;;;26.87;11.90;;;3.90;99.90;;;;;;5045257;28;20182;-71
2021/03/01 06:00:14;;;;;;;26.87;12.07;;;3.90;99.90;;;;;;5046818;28;20643;-71
2021/03/01 06:02:40;;;;;;;22.30;11.40;;;3.90;99.90;;;;;;5031456;28;20691;-71
2021/03/01 06:05:06;;;;;;;26.87;12.07;;;4.00;99.90;;;;;;5049664;28;20635;-71
2021/03/01 06:07:32;;;;;;;20.40;11.23;;;4.00;99.90;;;;;;5050012;28;20193;-71
2021/03/01 06:09:57;;;;;;;23.57;11.20;;;4.00;99.90;;;;;;5049840;28;20186;-71
2021/03/01 06:12:23;;;;;;;23.73;12.50;;;4.00;99.90;;;;;;5049829;28;20207;-71
2021/03/01 06:14:48;;;;;;;19.43;10.93;;;4.00;99.90;;;;;;5046404;28;20190;-71
2021/03/01 06:17:18;;;;;;;24.20;12.37;;;3.90;99.90;;;;;;5033232;28;20177;-71
2021/03/01 06:19:51;;;;;;;24.70;12.50;;;3.90;99.90;;;;;;5049330;28;20209;-71
2021/03/01 06:22:18;;;;;;;25.17;12.60;;;3.90;99.90;;;;;;5048415;28;20635;-71
2021/03/01 06:25:04;;;;;;;26.17;11.70;;;3.90;99.90;;;;;;5045827;28;20552;-71
2021/03/01 06:27:29;;;;;;;24.40;12.33;;;3.80;99.90;;;;;;5048454;28;20208;-75
2021/03/01 06:30:09;;;;;;;23.77;12.23;;;3.80;99.90;;;;;;5052562;28;20602;-75
2021/03/01 06:32:35;;;;;;;21.83;12.50;;;3.80;99.90;;;;;;5036958;28;20205;-75
2021/03/01 06:35:00;;;;;;;25.37;12.70;;;3.80;99.90;;;;;;5036801;28;20521;-75
2021/03/01 06:37:26;;;;;;;23.03;11.80;;;3.80;99.90;;;;;;5020393;28;20692;-75
2021/03/01 06:39:52;;;;;;;27.13;13.37;;;3.70;99.90;;;;;;5043865;28;20258;-73
2021/03/01 06:42:18;;;;;;;26.47;13.50;;;3.80;99.90;;;;;;5070359;28;20273;-73
2021/03/01 06:44:55;;;;;;;24.20;12.73;;;3.80;99.90;;;;;;5055485;28;20175;-73
2021/03/01 06:47:21;;;;;;;26.10;13.03;;;3.80;99.90;;;;;;5053924;28;20233;-72
2021/03/01 06:49:48;;;;;;;22.43;12.33;;;3.80;99.90;;;;;;5052200;28;20287;-72
2021/03/01 06:52:36;;;;;;;21.67;12.13;;;3.80;99.90;;;;;;5063545;28;20220;-73
2021/03/01 06:55:12;;;;;;;26.77;12.27;;;3.70;99.90;;;;;;5066496;28;20179;-74
2021/03/01 06:57:38;;;;;;;27.97;13.60;;;3.80;99.90;;;;;;5033356;28;20188;-76
2021/03/01 07:00:04;;;;;;;24.47;12.90;;;3.80;99.90;;;;;;5069359;28;20181;-75
2021/03/01 07:02:40;;;;;;;26.03;13.23;;;3.80;99.90;;;;;;5069208;28;20258;-75
2021/03/01 07:05:06;;;;;;;26.93;13.30;;;3.90;99.90;;;;;;5050068;28;20186;-74
2021/03/01 07:07:36;;;;;;;25.07;13.37;;;3.90;99.90;;;;;;5036632;28;20186;-75
2021/03/01 07:10:03;;;;;;;28.07;13.13;;;3.90;99.90;;;;;;5050058;28;20181;-74
2021/03/01 07:12:38;;;;;;;24.00;12.80;;;3.90;99.90;;;;;;5036470;28;20574;-74
2021/03/01 07:15:06;;;;;;;23.47;13.27;;;4.00;99.90;;;;;;5053140;28;20690;-72
2021/03/01 07:17:32;;;;;;;27.80;13.10;;;4.00;99.90;;;;;;5043459;28;20190;-73
2021/03/01 07:19:59;;;;;;;25.30;13.07;;;4.10;99.90;;;;;;5036092;28;20181;-69
2021/03/01 07:22:24;;;;;;;27.17;13.50;;;4.10;99.90;;;;;;5049135;28;20234;-69
2021/03/01 07:24:50;;;;;;;22.27;13.63;;;4.10;99.90;;;;;;5050228;28;20210;-72
2021/03/01 07:27:16;;;;;;;25.10;13.23;;;4.10;99.90;;;;;;5041833;28;20181;-71
2021/03/01 07:29:41;;;;;;;30.93;14.47;;;4.20;99.90;;;;;;5051977;28;20181;-72
2021/03/01 07:32:08;;;;;;;30.13;14.97;;;4.20;99.90;;;;;;5031408;28;20562;-70
2021/03/01 07:34:35;;;;;;;29.33;14.87;;;4.20;99.90;;;;;;5052061;28;20267;-71
2021/03/01 07:37:01;;;;;;;28.20;13.67;;;4.20;99.90;;;;;;5052459;28;20185;-71
2021/03/01 07:39:27;;;;;;;25.63;14.13;;;4.10;99.90;;;;;;5049115;28;20178;-72
2021/03/01 07:41:53;;;;;;;29.30;14.83;;;4.00;99.90;;;;;;5049323;28;20305;-71
2021/03/01 07:44:23;;;;;;;28.10;14.17;;;4.00;99.90;;;;;;5017981;28;20213;-71
2021/03/01 07:46:48;;;;;;;28.80;14.87;;;4.00;99.90;;;;;;5035255;28;20166;-72
2021/03/01 07:49:42;;;;;;;30.17;14.97;;;4.00;99.90;;;;;;5018423;28;20162;-71
2021/03/01 07:52:28;;;;;;;27.73;13.63;;;4.00;99.90;;;;;;5031571;28;20214;-74
2021/03/01 07:55:07;;;;;;;31.03;15.50;;;4.10;99.90;;;;;;5035402;28;20284;-72
2021/03/01 07:57:37;;;;;;;29.27;16.20;;;4.00;99.90;;;;;;5048813;28;20192;-74
2021/03/01 08:00:22;;;;;;;28.00;14.67;;;4.00;99.90;;;;;;5049053;28;20177;-73
2021/03/01 08:02:47;;;;;;;30.80;15.37;;;4.10;99.90;;;;;;5050214;28;20239;-75
2021/03/01 08:05:27;;;;;;;34.30;16.33;;;4.10;99.90;;;;;;5053870;28;20190;-77
2021/03/01 08:07:52;;;;;;;34.87;16.17;;;4.00;99.90;;;;;;5052126;28;20643;-76
2021/03/01 08:10:27;;;;;;;32.90;16.20;;;4.10;99.90;;;;;;5051724;28;20186;-75
2021/03/01 08:13:03;;;;;;;32.97;15.73;;;4.10;99.90;;;;;;5051000;28;20595;-75
2021/03/01 08:15:33;;;;;;;34.00;16.93;;;4.20;99.90;;;;;;5058869;28;20185;-73
2021/03/01 08:17:58;;;;;;;33.67;16.53;;;4.20;99.90;;;;;;5054457;28;20174;-78
2021/03/01 08:20:24;;;;;;;33.23;16.70;;;4.20;99.90;;;;;;5053590;28;20176;-80
2021/03/01 08:23:02;;;;;;;29.93;14.83;;;4.20;99.90;;;;;;5054532;28;20198;-83
2021/03/01 08:25:58;;;;;;;33.77;16.00;;;4.20;99.90;;;;;;5053310;28;20554;-81
2021/03/01 08:28:23;;;;;;;31.90;15.17;;;4.30;99.90;;;;;;5032380;28;20186;-79
2021/03/01 08:31:07;;;;;;;31.03;15.43;;;4.20;99.90;;;;;;5053941;28;20251;-79
2021/03/01 08:33:33;;;;;;;32.70;14.77;;;4.20;99.90;;;;;;5053352;28;20170;-77
2021/03/01 08:36:22;;;;;;;30.03;14.50;;;4.10;99.90;;;;;;5019591;28;20264;-75
2021/03/01 08:38:49;;;;;;;26.00;14.00;;;4.20;99.90;;;;;;5053241;28;20216;-74
2021/03/01 08:41:39;;;;;;;27.00;13.90;;;4.20;99.90;;;;;;5052105;28;20217;-74
2021/03/01 08:44:17;;;;;;;29.73;14.60;;;4.30;99.90;;;;;;5052101;28;20198;-74
2021/03/01 08:46:42;;;;;;;29.60;14.67;;;4.30;99.90;;;;;;5052456;28;20182;-71
2021/03/01 08:49:08;;;;;;;33.63;14.97;;;4.30;99.90;;;;;;5054094;28;20186;-72
2021/03/01 08:51:35;;;;;;;28.07;13.87;;;4.30;99.90;;;;;;5055591;28;20206;-72
2021/03/01 08:54:01;;;;;;;30.60;14.90;;;4.30;99.90;;;;;;5037495;28;20358;-73
2021/03/01 08:56:26;;;;;;;30.30;14.73;;;4.40;99.90;;;;;;5054432;28;20255;-71
2021/03/01 08:58:55;;;;;;;28.00;13.73;;;4.30;99.90;;;;;;5054903;28;20189;-72
2021/03/01 09:01:21;;;;;;;29.30;14.27;;;4.30;99.90;;;;;;5038841;28;20308;-72
2021/03/01 09:03:47;;;;;;;27.60;14.47;;;4.30;99.90;;;;;;5021319;28;20206;-72
2021/03/01 09:06:20;;;;;;;26.67;13.73;;;4.40;99.90;;;;;;5053374;28;20185;-72
2021/03/01 09:08:46;;;;;;;26.17;12.67;;;4.30;99.90;;;;;;5052908;28;20169;-72
2021/03/01 09:11:19;;;;;;;30.27;14.43;;;4.40;99.90;;;;;;5052511;28;20186;-73
2021/03/01 09:13:50;;;;;;;26.57;13.33;;;4.40;99.90;;;;;;5052606;28;20196;-77
2021/03/01 09:16:17;;;;;;;26.10;12.90;;;4.40;99.90;;;;;;5072727;28;20184;-77
2021/03/01 09:18:44;;;;;;;29.83;13.47;;;4.40;99.90;;;;;;5074670;28;20181;-77
2021/03/01 09:21:13;;;;;;;27.93;13.57;;;4.40;99.90;;;;;;5076639;28;20201;-73
2021/03/01 09:23:57;;;;;;;25.67;12.63;;;4.40;99.90;;;;;;5058908;28;20208;-74
2021/03/01 09:26:29;;;;;;;25.93;13.23;;;4.50;99.90;;;;;;5056602;28;20200;-76
2021/03/01 09:28:59;;;;;;;25.50;13.80;;;4.50;99.90;;;;;;5074335;28;20205;-76
2021/03/01 09:31:24;;;;;;;27.80;14.13;;;4.50;99.90;;;;;;5076793;28;20187;-75
2021/03/01 09:33:50;;;;;;;26.83;13.47;;;4.60;99.90;;;;;;5075269;28;20227;-74
2021/03/01 09:36:16;;;;;;;25.43;14.07;;;4.60;99.90;;;;;;5057330;28;20216;-77
2021/03/01 09:38:42;;;;;;;26.37;13.17;;;4.70;99.90;;;;;;5070034;28;20650;-75
2021/03/01 09:41:11;;;;;;;24.40;14.33;;;4.80;99.90;;;;;;5052283;28;20215;-74
2021/03/01 09:43:40;;;;;;;26.57;13.97;;;4.90;99.90;;;;;;5048397;28;20204;-75
2021/03/01 09:46:06;;;;;;;25.87;13.40;;;4.90;99.90;;;;;;5054887;28;20172;-76
2021/03/01 09:48:37;;;;;;;26.20;13.87;;;4.80;99.90;;;;;;5054227;28;20169;-76
2021/03/01 09:51:03;;;;;;;28.00;14.40;;;4.80;99.90;;;;;;5072699;28;20208;-78
2021/03/01 09:53:29;;;;;;;27.60;14.43;;;4.90;99.90;;;;;;5072978;28;20609;-75
2021/03/01 09:55:54;;;;;;;28.77;14.73;;;4.90;99.90;;;;;;5072013;28;20177;-74
2021/03/01 09:58:29;;;;;;;30.93;15.27;;;4.90;99.90;;;;;;5071551;28;20677;-77
2021/03/01 10:01:26;;;;;;;27.63;14.50;;;5.00;99.90;;;;;;5080138;28;20200;-76
2021/03/01 10:03:51;;;;;;;32.83;15.23;;;4.80;99.90;;;;;;5046926;28;20213;-76
2021/03/01 10:06:42;;;;;;;29.00;14.53;;;4.90;99.90;;;;;;5076586;28;20251;-73
2021/03/01 10:09:11;;;;;;;32.33;15.20;;;4.80;99.90;;;;;;5067809;28;20234;-76
2021/03/01 10:11:37;;;;;;;31.87;15.77;;;4.80;99.90;;;;;;5076747;28;20202;-72
2021/03/01 10:14:03;;;;;;;31.53;16.53;;;4.70;99.90;;;;;;5075886;28;20178;-74
2021/03/01 10:16:34;;;;;;;29.27;14.90;;;4.70;99.90;;;;;;5069870;28;20192;-73
2021/03/01 10:19:28;;;;;;;29.53;14.70;;;4.70;99.90;;;;;;5073302;28;20211;-72
2021/03/01 10:21:59;;;;;;;33.10;15.50;;;4.80;99.90;;;;;;5044561;28;20308;-74
2021/03/01 10:24:25;;;;;;;28.73;14.23;;;4.80;99.90;;;;;;5056126;28;20196;-72
2021/03/01 10:27:04;;;;;;;27.80;14.53;;;4.90;99.90;;;;;;5057605;28;20211;-76
2021/03/01 10:29:38;;;;;;;29.10;15.90;;;4.90;99.90;;;;;;5041504;28;20181;-74
2021/03/01 10:32:04;;;;;;;27.80;13.53;;;4.90;99.90;;;;;;5052524;28;20204;-76
2021/03/01 10:34:35;;;;;;;25.13;14.33;;;5.00;99.90;;;;;;5072901;28;20189;-74
2021/03/01 10:37:02;;;;;;;28.00;13.93;;;5.00;99.90;;;;;;5075252;28;20204;-74
2021/03/01 10:39:32;;;;;;;23.93;13.33;;;5.00;99.90;;;;;;5058118;28;20208;-72
2021/03/01 10:42:11;;;;;;;25.43;13.00;;;5.10;99.90;;;;;;5075808;28;20627;-75
2021/03/01 10:44:37;;;;;;;28.40;13.77;;;5.20;99.90;;;;;;5075535;28;20654;-76
2021/03/01 10:47:25;;;;;;;25.70;13.93;;;5.30;99.90;;;;;;5074552;28;20191;-75
2021/03/01 10:49:55;;;;;;;23.80;13.13;;;5.30;99.90;;;;;;5076472;28;20658;-74
2021/03/01 10:52:20;;;;;;;26.83;13.67;;;5.50;99.90;;;;;;5077715;28;20201;-73
2021/03/01 10:54:46;;;;;;;23.53;12.87;;;5.60;99.90;;;;;;5059675;28;20184;-74
2021/03/01 10:57:12;;;;;;;24.83;12.47;;;5.70;99.90;;;;;;5057053;28;20552;-72
2021/03/01 10:59:37;;;;;;;22.60;12.40;;;5.70;99.90;;;;;;5037364;28;20179;-75
2021/03/01 11:02:06;;;;;;;20.03;11.10;;;5.80;99.90;;;;;;5043075;28;20202;-75
2021/03/01 11:04:33;;;;;;;24.57;12.53;;;5.90;99.90;;;;;;5056129;28;20204;-73
2021/03/01 11:06:58;;;;;;;22.53;11.87;;;5.90;99.90;;;;;;5054101;28;20174;-72
2021/03/01 11:09:24;;;;;;;21.67;11.87;;;5.90;99.90;;;;;;5053145;28;20234;-72
2021/03/01 11:11:50;;;;;;;20.70;12.03;;;5.90;99.90;;;;;;5024389;28;20191;-73
2021/03/01 11:14:16;;;;;;;21.07;11.70;;;5.80;99.90;;;;;;5042021;28;20542;-76
2021/03/01 11:16:42;;;;;;;20.43;11.07;;;5.90;99.90;;;;;;5060413;28;20257;-76
2021/03/01 11:19:08;;;;;;;20.73;11.60;;;5.90;99.90;;;;;;5051297;28;20175;-76
2021/03/01 11:21:33;;;;;;;21.60;12.23;;;5.80;99.90;;;;;;5057071;28;20578;-82
2021/03/01 11:23:59;;;;;;;21.53;11.80;;;5.90;99.90;;;;;;5039136;28;20199;-78
2021/03/01 11:26:25;;;;;;;24.37;13.00;;;5.90;99.90;;;;;;5045905;28;20601;-81
2021/03/01 11:28:51;;;;;;;22.07;11.80;;;5.90;99.90;;;;;;5035722;28;20182;-74
2021/03/01 11:31:16;;;;;;;22.97;12.00;;;6.00;99.90;;;;;;5051483;28;20198;-73
2021/03/01 11:33:42;;;;;;;19.57;11.80;;;5.90;99.90;;;;;;5052401;28;20178;-73
2021/03/01 11:36:08;;;;;;;20.40;11.43;;;6.00;99.90;;;;;;5053468;28;20563;-73
2021/03/01 11:38:34;;;;;;;21.33;12.10;;;5.90;99.90;;;;;;5035929;28;20256;-73
2021/03/01 11:40:59;;;;;;;21.60;11.70;;;5.90;99.90;;;;;;5053450;28;20229;-72
2021/03/01 11:43:25;;;;;;;18.27;10.70;;;6.10;99.90;;;;;;5053207;28;20285;-75
2021/03/01 11:45:50;;;;;;;20.10;10.50;;;6.20;99.90;;;;;;5052178;28;20178;-73
2021/03/01 11:48:16;;;;;;;18.37;10.10;;;6.20;99.90;;;;;;5065923;28;20643;-73
2021/03/01 11:50:43;;;;;;;17.80;10.20;;;6.30;99.90;;;;;;5072143;28;20189;-72
2021/03/01 11:53:09;;;;;;;18.27;11.10;;;6.10;99.90;;;;;;5071816;28;20170;-72
2021/03/01 11:55:35;;;;;;;19.53;10.50;;;6.30;99.90;;;;;;5063093;28;20200;-72
2021/03/01 11:58:00;;;;;;;18.53;11.13;;;6.50;99.90;;;;;;5058959;28;20181;-71
2021/03/01 12:00:26;;;;;;;19.57;10.83;;;6.50;99.90;;;;;;5058335;28;20182;-74
2021/03/01 12:02:51;;;;;;;19.33;11.33;;;6.50;99.90;;;;;;5052402;28;20885;-74
2021/03/01 12:05:17;;;;;;;17.50;10.37;;;6.50;99.90;;;;;;5048563;28;20170;-73
2021/03/01 12:07:44;;;;;;;19.37;10.20;;;6.40;99.90;;;;;;5032064;28;20232;-72
2021/03/01 12:10:10;;;;;;;15.77;9.93;;;6.50;99.90;;;;;;5031747;28;20743;-74
2021/03/01 12:12:35;;;;;;;17.80;10.73;;;6.40;99.90;;;;;;5031972;28;20240;-74
2021/03/01 12:15:01;;;;;;;19.33;10.33;;;6.40;99.90;;;;;;5015129;28;20182;-73
2021/03/01 12:17:27;;;;;;;20.60;11.27;;;6.50;99.90;;;;;;5031938;28;20675;-73
2021/03/01 12:19:52;;;;;;;18.87;10.90;;;6.40;99.90;;;;;;5031704;28;20181;-73
2021/03/01 12:22:18;;;;;;;19.13;10.80;;;6.30;99.90;;;;;;5015031;28;20213;-73
2021/03/01 12:24:43;;;;;;;18.53;10.67;;;6.50;99.90;;;;;;5031524;28;20171;-73
2021/03/01 12:27:09;;;;;;;17.67;10.70;;;6.60;99.90;;;;;;5030894;28;20186;-72
2021/03/01 12:29:34;;;;;;;20.37;10.77;;;6.70;99.90;;;;;;5031497;28;20175;-73
2021/03/01 12:32:00;;;;;;;19.63;11.03;;;6.80;99.90;;;;;;5032327;28;20636;-75
2021/03/01 12:34:25;;;;;;;19.03;10.13;;;6.80;99.90;;;;;;5015074;28;20174;-73
2021/03/01 12:36:51;;;;;;;18.23;10.63;;;6.80;99.90;;;;;;5032637;28;20171;-73
2021/03/01 12:39:17;;;;;;;16.93;10.07;;;6.90;99.90;;;;;;5014914;28;20672;-74
2021/03/01 12:41:42;;;;;;;18.17;9.67;;;6.90;99.90;;;;;;5038667;28;20213;-75